createdAt,value
2019-04-23T00:00:17.084Z,17.50
2019-04-23T00:02:45.850Z,17.40
2019-04-23T00:05:21.528Z,17.40
2019-04-23T00:07:56.195Z,17.40
2019-04-23T00:10:13.483Z,17.40
2019-04-23T00:12:44.209Z,17.40
2019-04-23T00:15:08.793Z,17.40
2019-04-23T00:17:38.982Z,17.30
2019-04-23T00:20:04.542Z,17.10
2019-04-23T00:22:29.079Z,17.20
2019-04-23T00:27:29.122Z,17.30
2019-04-23T00:29:57.624Z,17.40
2019-04-23T00:32:28.740Z,17.30
2019-04-23T00:34:57.703Z,17.30
2019-04-23T00:37:25.701Z,17.30
2019-04-23T00:39:48.139Z,17.20
2019-04-23T00:42:22.074Z,17.10
2019-04-23T00:47:23.541Z,17.10
2019-04-23T00:49:44.893Z,17.20
2019-04-23T00:52:16.411Z,17.10
2019-04-23T00:54:46.770Z,17.00
2019-04-23T00:57:12.136Z,16.90
2019-04-23T00:59:39.482Z,16.80
2019-04-23T01:02:04.154Z,16.90
2019-04-23T01:04:32.741Z,16.90
2019-04-23T01:07:02.550Z,16.80
2019-04-23T01:09:25.852Z,16.70
2019-04-23T01:11:49.840Z,16.60
2019-04-23T01:14:22.960Z,16.30
2019-04-23T01:16:45.857Z,15.90
2019-04-23T01:19:26.645Z,15.60
2019-04-23T01:21:30.596Z,15.40
2019-04-23T01:24:04.437Z,15.30
2019-04-23T01:27:00.589Z,15.20
2019-04-23T01:29:19.967Z,15.00
2019-04-23T01:34:19.759Z,14.70
2019-04-23T01:36:40.205Z,14.50
2019-04-23T01:39:14.501Z,14.40
2019-04-23T01:41:45.410Z,14.30
2019-04-23T01:44:20.124Z,14.00
2019-04-23T01:46:42.745Z,14.00
2019-04-23T01:49:07.807Z,14.00
2019-04-23T01:51:42.911Z,14.00
2019-04-23T01:54:02.848Z,14.10
2019-04-23T01:56:30.883Z,14.10
2019-04-23T02:01:47.982Z,14.10
2019-04-23T02:06:28.033Z,13.80
2019-04-23T02:08:53.599Z,13.70
2019-04-23T02:11:19.080Z,13.70
2019-04-23T02:13:55.675Z,13.50
2019-04-23T02:16:19.304Z,13.50
2019-04-23T02:18:47.849Z,13.50
2019-04-23T02:21:12.085Z,13.40
2019-04-23T02:23:44.303Z,13.20
2019-04-23T02:26:11.206Z,13.20
2019-04-23T02:28:53.259Z,13.10
2019-04-23T02:38:44.309Z,12.90
2019-04-23T02:43:36.137Z,13.00
2019-04-23T02:48:40.594Z,12.90
2019-04-23T02:53:42.287Z,12.80
2019-04-23T02:55:50.501Z,12.80
2019-04-23T02:58:39.000Z,12.80
2019-04-23T03:01:25.717Z,12.80
2019-04-23T03:03:14.247Z,12.80
2019-04-23T03:05:45.970Z,12.80
2019-04-23T03:08:06.210Z,12.60
2019-04-23T03:10:41.867Z,12.60
2019-04-23T03:18:21.000Z,12.30
2019-04-23T03:26:28.707Z,12.40
2019-04-23T03:28:57.779Z,12.50
2019-04-23T03:33:04.309Z,12.50
2019-04-23T03:38:50.641Z,12.30
2019-04-23T03:43:37.454Z,12.20
2019-04-23T03:50:43.470Z,12.10
2019-04-23T03:55:56.218Z,12.20
2019-04-23T03:58:18.694Z,12.10
2019-04-23T04:00:51.450Z,12.00
2019-04-23T04:03:26.998Z,12.00
2019-04-23T04:05:45.516Z,11.90
2019-04-23T04:08:13.904Z,12.00
2019-04-23T04:10:46.478Z,12.00
2019-04-23T04:13:22.330Z,12.00
2019-04-23T04:18:11.025Z,11.90
2019-04-23T04:20:35.912Z,12.00
2019-04-23T04:25:30.548Z,12.00
2019-04-23T04:30:22.338Z,11.90
2019-04-23T04:32:56.617Z,12.00
2019-04-23T04:42:37.075Z,12.00
2019-04-23T04:52:41.242Z,12.00
2019-04-23T04:54:51.906Z,12.00
2019-04-23T04:57:29.768Z,11.90
2019-04-23T05:00:06.758Z,11.90
2019-04-23T05:02:39.639Z,11.80
2019-04-23T05:05:09.150Z,11.80
2019-04-23T05:09:48.383Z,11.80
2019-04-23T05:12:14.467Z,11.80
2019-04-23T05:17:11.078Z,11.90
2019-04-23T05:22:06.993Z,12.10
2019-04-23T05:27:01.081Z,12.20
2019-04-23T05:29:33.310Z,12.10
2019-04-23T05:31:54.897Z,12.10
2019-04-23T05:34:24.377Z,12.10
2019-04-23T05:36:53.714Z,12.10
2019-04-23T05:41:45.560Z,12.20
2019-04-23T05:44:23.846Z,12.30
2019-04-23T05:46:52.141Z,12.40
2019-04-23T05:51:50.975Z,12.50
2019-04-23T05:54:12.972Z,12.60
2019-04-23T05:56:38.229Z,12.70
2019-04-23T05:59:11.637Z,12.80
2019-04-23T06:04:11.720Z,12.90
2019-04-23T06:06:54.273Z,13.00
2019-04-23T06:09:03.454Z,13.10
2019-04-23T06:11:37.067Z,13.20
2019-04-23T06:14:05.318Z,13.30
2019-04-23T06:16:31.553Z,13.50
2019-04-23T06:18:59.391Z,13.50
2019-04-23T06:21:30.911Z,13.60
2019-04-23T06:26:24.429Z,13.80
2019-04-23T06:28:44.045Z,13.90
2019-04-23T06:31:06.353Z,13.90
2019-04-23T06:36:05.404Z,13.90
2019-04-23T06:41:05.839Z,14.40
2019-04-23T06:43:34.967Z,14.60
2019-04-23T06:45:49.808Z,14.70
2019-04-23T06:51:00.771Z,14.90
2019-04-23T06:53:12.514Z,14.90
2019-04-23T06:55:49.246Z,15.10
2019-04-23T06:58:24.012Z,15.30
2019-04-23T07:00:41.917Z,15.50
2019-04-23T07:03:14.965Z,15.50
2019-04-23T07:05:57.372Z,15.60
2019-04-23T07:08:13.609Z,15.70
2019-04-23T07:10:42.196Z,15.20
2019-04-23T07:13:10.946Z,15.10
2019-04-23T07:18:03.987Z,14.60
2019-04-23T07:20:33.495Z,14.60
2019-04-23T07:23:04.866Z,14.60
2019-04-23T07:25:29.675Z,14.70
2019-04-23T07:27:59.084Z,14.90
2019-04-23T07:30:20.655Z,15.30
2019-04-23T07:32:52.970Z,15.50
2019-04-23T07:35:15.760Z,15.50
2019-04-23T07:37:57.114Z,15.30
2019-04-23T07:43:04.321Z,15.10
2019-04-23T07:45:35.272Z,15.20
2019-04-23T07:48:10.792Z,15.30
2019-04-23T07:50:49.083Z,15.20
2019-04-23T07:55:41.405Z,15.50
2019-04-23T07:58:10.569Z,15.80
2019-04-23T08:00:45.613Z,16.20
2019-04-23T08:03:08.540Z,16.20
2019-04-23T08:05:32.002Z,16.20
2019-04-23T08:07:57.437Z,16.10
2019-04-23T08:12:56.188Z,16.20
2019-04-23T08:15:26.853Z,16.50
2019-04-23T08:17:42.663Z,16.90
2019-04-23T08:20:11.206Z,16.70
2019-04-23T08:22:40.752Z,16.80
2019-04-23T08:25:12.445Z,17.00
2019-04-23T08:27:56.024Z,17.10
2019-04-23T08:30:06.423Z,17.30
2019-04-23T08:32:52.147Z,17.40
2019-04-23T08:37:51.205Z,18.00
2019-04-23T08:42:38.002Z,18.50
2019-04-23T08:45:09.219Z,18.60
2019-04-23T08:47:32.042Z,18.60
2019-04-23T08:49:56.704Z,18.60
2019-04-23T09:00:05.612Z,18.70
2019-04-23T09:02:35.699Z,18.60
2019-04-23T09:07:23.902Z,18.70
2019-04-23T09:09:53.678Z,19.00
2019-04-23T09:14:44.469Z,19.50
2019-04-23T09:17:24.168Z,19.80
2019-04-23T09:19:54.455Z,20.10
2019-04-23T09:22:14.449Z,20.10
2019-04-23T09:24:40.269Z,20.00
2019-04-23T09:29:39.119Z,20.20
2019-04-23T09:34:34.583Z,19.80
2019-04-23T09:37:04.776Z,19.70
2019-04-23T09:42:16.070Z,19.00
2019-04-23T09:47:38.541Z,19.10
2019-04-23T09:50:04.699Z,19.10
2019-04-23T09:52:30.911Z,19.10
2019-04-23T09:57:15.997Z,19.40
2019-04-23T09:59:51.090Z,19.40
2019-04-23T10:02:13.493Z,19.30
2019-04-23T10:04:36.556Z,19.50
2019-04-23T10:07:01.659Z,19.80
2019-04-23T10:09:18.321Z,19.80
2019-04-23T10:11:45.138Z,20.00
2019-04-23T10:14:12.410Z,20.00
2019-04-23T10:16:43.372Z,20.00
2019-04-23T10:19:12.141Z,20.10
2019-04-23T10:21:39.429Z,20.30
2019-04-23T10:24:09.449Z,20.40
2019-04-23T10:26:41.861Z,20.80
2019-04-23T10:32:03.878Z,21.20
2019-04-23T10:34:42.319Z,21.50
2019-04-23T10:37:02.805Z,21.70
2019-04-23T10:39:35.133Z,21.90
2019-04-23T10:42:01.211Z,22.10
2019-04-23T10:44:52.051Z,22.00
2019-04-23T10:47:58.947Z,21.80
2019-04-23T10:53:26.559Z,21.80
2019-04-23T10:55:56.332Z,21.70
2019-04-23T10:58:18.052Z,22.30
2019-04-23T11:00:45.654Z,21.90
2019-04-23T11:03:32.883Z,21.80
2019-04-23T11:08:02.310Z,21.30
2019-04-23T11:10:33.246Z,20.90
2019-04-23T11:13:24.005Z,20.90
2019-04-23T11:15:58.917Z,21.10
2019-04-23T11:18:02.830Z,21.30
2019-04-23T11:20:45.516Z,21.30
2019-04-23T11:22:59.113Z,21.10
2019-04-23T11:25:35.990Z,20.90
2019-04-23T11:28:05.572Z,21.00
2019-04-23T11:30:41.095Z,21.40
2019-04-23T11:33:15.918Z,21.40
2019-04-23T11:40:25.409Z,21.40
2019-04-23T11:43:09.064Z,21.90
2019-04-23T11:45:50.796Z,22.10
2019-04-23T11:48:24.421Z,22.00
2019-04-23T11:50:18.886Z,21.70
2019-04-23T11:55:27.087Z,22.00
2019-04-23T11:57:47.663Z,21.80
2019-04-23T12:00:05.525Z,21.70
2019-04-23T12:02:40.272Z,22.00
2019-04-23T12:05:11.880Z,22.40
2019-04-23T12:07:32.841Z,22.30
2019-04-23T12:10:04.796Z,21.70
2019-04-23T12:12:33.361Z,22.00
2019-04-23T12:14:56.230Z,22.00
2019-04-23T12:18:10.888Z,22.00
2019-04-23T12:20:07.922Z,21.80
2019-04-23T12:22:30.389Z,21.50
2019-04-23T12:27:23.279Z,21.80
2019-04-23T12:32:35.490Z,21.40
2019-04-23T12:34:58.471Z,21.50
2019-04-23T12:37:26.713Z,21.50
2019-04-23T12:39:41.748Z,21.20
2019-04-23T12:42:38.357Z,21.50
2019-04-23T12:44:51.606Z,21.50
2019-04-23T12:47:14.277Z,21.70
2019-04-23T12:49:59.093Z,21.80
2019-04-23T12:52:05.099Z,21.80
2019-04-23T12:54:43.239Z,22.00
2019-04-23T12:57:08.576Z,22.20
2019-04-23T12:59:30.945Z,22.40
2019-04-23T13:01:57.611Z,21.80
2019-04-23T13:04:26.136Z,22.10
2019-04-23T13:06:50.923Z,22.20
2019-04-23T13:12:01.507Z,22.00
2019-04-23T13:14:29.937Z,21.90
2019-04-23T13:17:00.645Z,22.00
2019-04-23T13:19:25.663Z,22.50
2019-04-23T13:27:15.390Z,23.00
2019-04-23T13:32:02.537Z,23.50
2019-04-23T13:34:41.388Z,23.70
2019-04-23T13:36:59.823Z,23.80
2019-04-23T13:39:24.512Z,23.70
2019-04-23T13:41:53.929Z,24.50
2019-04-23T13:44:26.369Z,25.20
2019-04-23T13:46:57.549Z,25.10
2019-04-23T13:49:18.995Z,25.70
2019-04-23T13:52:19.100Z,25.90
2019-04-23T13:54:42.042Z,26.00
2019-04-23T13:57:13.058Z,25.90
2019-04-23T14:01:54.343Z,25.00
2019-04-23T14:04:14.133Z,25.30
2019-04-23T14:06:43.061Z,25.30
2019-04-23T14:09:22.564Z,25.30
2019-04-23T14:11:51.479Z,25.20
2019-04-23T14:14:21.953Z,24.70
2019-04-23T14:16:39.494Z,24.70
2019-04-23T14:21:33.429Z,24.40
2019-04-23T14:29:15.019Z,24.70
2019-04-23T14:31:25.724Z,25.50
2019-04-23T14:36:32.684Z,26.00
2019-04-23T14:38:52.801Z,26.10
2019-04-23T14:41:24.936Z,26.60
2019-04-23T14:48:50.014Z,28.20
2019-04-23T14:53:40.911Z,27.60
2019-04-23T15:01:16.012Z,26.50
2019-04-23T15:08:39.808Z,25.70
2019-04-23T15:11:16.407Z,26.80
2019-04-23T15:13:27.534Z,26.90
2019-04-23T15:16:03.000Z,26.90
2019-04-23T15:18:37.926Z,27.90
2019-04-23T15:21:10.193Z,28.40
2019-04-23T15:23:41.219Z,28.50
2019-04-23T15:26:38.135Z,29.20
2019-04-23T15:28:10.170Z,29.80
2019-04-23T15:30:51.322Z,29.90
2019-04-23T15:36:06.641Z,30.40
2019-04-23T15:41:00.187Z,30.50
2019-04-23T15:45:38.411Z,30.20
2019-04-23T15:48:03.318Z,30.50
2019-04-23T15:52:56.581Z,30.80
2019-04-23T15:55:22.153Z,30.90
2019-04-23T15:58:05.449Z,30.50
2019-04-23T16:00:20.402Z,30.40
2019-04-23T16:02:20.219Z,30.30
2019-04-23T16:04:48.972Z,29.90
2019-04-23T16:07:31.409Z,29.50
2019-04-23T16:10:20.061Z,29.30
2019-04-23T16:12:50.761Z,28.90
2019-04-23T16:15:08.210Z,28.60
2019-04-23T16:17:37.167Z,28.20
2019-04-23T16:22:32.078Z,26.20
2019-04-23T16:27:20.177Z,25.10
2019-04-23T16:30:12.887Z,24.30
2019-04-23T16:32:37.554Z,23.60
2019-04-23T16:35:03.262Z,23.60
2019-04-23T16:37:26.494Z,23.40
2019-04-23T16:40:04.188Z,23.40
2019-04-23T16:42:27.022Z,23.40
2019-04-23T16:44:56.073Z,23.60
2019-04-23T16:47:21.773Z,23.00
2019-04-23T16:49:51.163Z,22.60
2019-04-23T16:52:17.794Z,22.50
2019-04-23T16:54:50.967Z,22.60
2019-04-23T16:57:22.775Z,22.70
2019-04-23T16:59:35.275Z,22.80
2019-04-23T17:02:07.805Z,22.80
2019-04-23T17:04:34.564Z,22.80
2019-04-23T17:06:57.555Z,22.60
2019-04-23T17:09:24.614Z,22.60
2019-04-23T17:11:59.349Z,22.60
2019-04-23T17:14:19.171Z,22.50
2019-04-23T17:16:42.638Z,22.50
2019-04-23T17:19:24.578Z,22.50
2019-04-23T17:21:57.276Z,22.50
2019-04-23T17:29:20.386Z,22.10
2019-04-23T17:34:21.706Z,21.90
2019-04-23T17:37:00.825Z,21.70
2019-04-23T17:41:48.488Z,21.30
2019-04-23T17:44:19.815Z,21.00
2019-04-23T17:46:37.651Z,20.50
2019-04-23T17:49:09.760Z,20.40
2019-04-23T17:51:26.057Z,20.20
2019-04-23T17:54:04.761Z,20.00
2019-04-23T17:56:41.558Z,19.80
2019-04-23T17:58:58.935Z,19.70
2019-04-23T18:03:57.379Z,19.30
2019-04-23T18:06:30.050Z,19.10
2019-04-23T18:08:50.953Z,19.00
2019-04-23T18:11:16.295Z,18.90
2019-04-23T18:13:46.359Z,18.70
2019-04-23T18:18:45.072Z,18.50
2019-04-23T18:21:23.800Z,18.30
2019-04-23T18:26:46.066Z,18.00
2019-04-23T18:29:18.896Z,17.90
2019-04-23T18:34:41.898Z,17.70
2019-04-23T18:37:01.565Z,17.40
2019-04-23T18:39:32.903Z,17.30
2019-04-23T18:42:03.871Z,17.20
2019-04-23T18:44:29.691Z,17.00
2019-04-23T18:46:49.017Z,16.90
2019-04-23T18:49:19.888Z,16.70
2019-04-23T18:51:53.340Z,16.50
2019-04-23T18:54:14.392Z,16.60
2019-04-23T18:56:58.391Z,16.40
2019-04-23T19:02:05.153Z,16.30
2019-04-23T19:04:33.087Z,16.20
2019-04-23T19:06:41.206Z,16.00
2019-04-23T19:09:23.836Z,16.00
2019-04-23T19:12:05.147Z,16.00
2019-04-23T19:14:35.504Z,16.00
2019-04-23T19:17:16.295Z,16.00
2019-04-23T19:19:20.398Z,15.90
2019-04-23T19:24:18.437Z,15.90
2019-04-23T19:27:03.572Z,15.90
2019-04-23T19:29:15.980Z,15.90
2019-04-23T19:31:53.280Z,16.00
2019-04-23T19:39:11.045Z,15.90
2019-04-23T19:41:39.421Z,15.80
2019-04-23T19:44:01.412Z,15.70
2019-04-23T19:46:43.727Z,15.70
2019-04-23T19:49:05.341Z,15.70
2019-04-23T19:51:32.049Z,15.70
2019-04-23T19:54:01.748Z,15.80
2019-04-23T20:03:50.122Z,15.70
2019-04-23T20:08:53.241Z,15.30
2019-04-23T20:11:08.024Z,15.20
2019-04-23T20:13:45.712Z,15.00
2019-04-23T20:16:12.245Z,15.00
2019-04-23T20:18:42.996Z,15.00
2019-04-23T20:23:47.846Z,14.90
2019-04-23T20:34:02.946Z,14.60
2019-04-23T20:36:23.783Z,14.50
2019-04-23T20:38:53.199Z,14.50
2019-04-23T20:41:21.486Z,14.40
2019-04-23T20:43:49.182Z,14.30
2019-04-23T20:46:14.542Z,14.20
2019-04-23T20:51:06.066Z,14.00
2019-04-23T20:53:43.347Z,13.90
2019-04-23T20:58:48.158Z,13.80
2019-04-23T21:01:22.276Z,13.70
2019-04-23T21:03:49.088Z,13.60
2019-04-23T21:06:08.723Z,13.60
2019-04-23T21:10:58.307Z,13.50
2019-04-23T21:13:50.606Z,13.40
2019-04-23T21:16:05.028Z,13.40
2019-04-23T21:18:32.231Z,13.40
2019-04-23T21:20:56.077Z,13.30
2019-04-23T21:23:24.338Z,13.20
2019-04-23T21:25:49.115Z,13.20
2019-04-23T21:31:00.629Z,13.10
2019-04-23T21:33:30.089Z,13.10
2019-04-23T21:39:07.583Z,13.10
2019-04-23T21:44:10.525Z,13.00
2019-04-23T21:46:28.030Z,13.00
2019-04-23T21:56:15.310Z,12.80
2019-04-23T21:58:53.363Z,12.60
2019-04-23T22:01:24.464Z,12.60
2019-04-23T22:04:06.407Z,12.40
2019-04-23T22:06:12.343Z,12.30
2019-04-23T22:08:45.909Z,12.10
2019-04-23T22:11:16.913Z,12.20
2019-04-23T22:13:46.206Z,12.00
2019-04-23T22:16:07.290Z,12.00
2019-04-23T22:18:34.363Z,11.80
2019-04-23T22:21:14.405Z,11.80
2019-04-23T22:23:36.752Z,11.70
2019-04-23T22:26:11.175Z,11.80
2019-04-23T22:28:27.420Z,11.70
2019-04-23T22:30:54.955Z,11.80
2019-04-23T22:33:19.547Z,11.80
2019-04-23T22:35:55.652Z,11.80
2019-04-23T22:38:13.369Z,11.90
2019-04-23T22:40:41.594Z,11.90
2019-04-23T22:43:14.990Z,11.90
2019-04-23T22:45:37.749Z,11.90
2019-04-23T22:48:04.512Z,11.80
2019-04-23T22:53:00.397Z,11.80
2019-04-23T22:55:32.791Z,11.70
2019-04-23T22:58:08.155Z,11.70
2019-04-23T23:00:18.607Z,11.70
2019-04-23T23:02:58.022Z,11.80
2019-04-23T23:05:35.862Z,11.80
2019-04-23T23:07:56.473Z,11.70
2019-04-23T23:10:20.918Z,11.50
2019-04-23T23:15:17.826Z,11.50
2019-04-23T23:17:52.624Z,11.30
2019-04-23T23:22:51.353Z,11.30
2019-04-23T23:25:13.372Z,11.20
2019-04-23T23:27:40.036Z,11.20
2019-04-23T23:32:31.787Z,11.20
2019-04-23T23:37:24.323Z,11.10
2019-04-23T23:39:59.975Z,11.20
2019-04-23T23:42:16.486Z,11.20
2019-04-23T23:45:10.276Z,11.20
2019-04-23T23:47:14.851Z,11.20
2019-04-23T23:49:48.415Z,11.20
2019-04-23T23:52:16.166Z,11.10
2019-04-23T23:54:43.853Z,11.00
2019-04-23T23:57:13.704Z,11.00
2019-04-23T23:59:49.063Z,11.00
